sensor_id;sensor_type;location;lat;lon;timestamp;P1;durP1;ratioP1;P2;durP2;ratioP2
69910;SDS011;63555;49.920;17.868;2023-07-08T00:00:45;6.20;;;3.47;;
69910;SDS011;63555;49.920;17.868;2023-07-08T00:05:48;7.68;;;3.95;;
69910;SDS011;63555;49.920;17.868;2023-07-08T00:10:52;6.37;;;3.80;;
69910;SDS011;63555;49.920;17.868;2023-07-08T00:15:53;5.90;;;3.40;;
69910;SDS011;63555;49.920;17.868;2023-07-08T00:20:53;5.85;;;3.67;;
69910;SDS011;63555;49.920;17.868;2023-07-08T00:25:53;5.28;;;3.70;;
69910;SDS011;63555;49.920;17.868;2023-07-08T00:30:54;7.57;;;4.18;;
69910;SDS011;63555;49.920;17.868;2023-07-08T00:35:55;6.63;;;3.90;;
69910;SDS011;63555;49.920;17.868;2023-07-08T00:51:29;8.17;;;4.40;;
69910;SDS011;63555;49.920;17.868;2023-07-08T00:56:33;10.93;;;3.63;;
69910;SDS011;63555;49.920;17.868;2023-07-08T01:01:43;6.90;;;3.92;;
69910;SDS011;63555;49.920;17.868;2023-07-08T01:06:46;8.30;;;4.30;;
69910;SDS011;63555;49.920;17.868;2023-07-08T01:11:54;8.18;;;4.20;;
69910;SDS011;63555;49.920;17.868;2023-07-08T01:16:58;5.53;;;3.55;;
69910;SDS011;63555;49.920;17.868;2023-07-08T01:22:03;5.20;;;3.58;;
69910;SDS011;63555;49.920;17.868;2023-07-08T01:27:07;7.60;;;3.90;;
69910;SDS011;63555;49.920;17.868;2023-07-08T01:32:11;6.90;;;3.90;;
69910;SDS011;63555;49.920;17.868;2023-07-08T01:37:17;8.63;;;4.15;;
69910;SDS011;63555;49.920;17.868;2023-07-08T01:42:18;7.03;;;3.93;;
69910;SDS011;63555;49.920;17.868;2023-07-08T01:47:20;7.00;;;4.37;;
69910;SDS011;63555;49.920;17.868;2023-07-08T01:52:22;7.93;;;3.92;;
69910;SDS011;63555;49.920;17.868;2023-07-08T01:57:23;7.17;;;3.73;;
69910;SDS011;63555;49.920;17.868;2023-07-08T02:02:24;8.17;;;4.30;;
69910;SDS011;63555;49.920;17.868;2023-07-08T02:07:26;5.90;;;4.05;;
69910;SDS011;63555;49.920;17.868;2023-07-08T02:12:27;11.52;;;4.72;;
69910;SDS011;63555;49.920;17.868;2023-07-08T02:17:27;7.50;;;4.07;;
69910;SDS011;63555;49.920;17.868;2023-07-08T02:22:30;8.07;;;3.92;;
69910;SDS011;63555;49.920;17.868;2023-07-08T02:27:30;7.43;;;3.67;;
69910;SDS011;63555;49.920;17.868;2023-07-08T02:32:31;6.53;;;3.80;;
69910;SDS011;63555;49.920;17.868;2023-07-08T02:37:34;8.90;;;4.43;;
69910;SDS011;63555;49.920;17.868;2023-07-08T02:42:36;7.97;;;3.80;;
69910;SDS011;63555;49.920;17.868;2023-07-08T02:47:36;8.67;;;4.17;;
69910;SDS011;63555;49.920;17.868;2023-07-08T02:52:36;8.30;;;4.87;;
69910;SDS011;63555;49.920;17.868;2023-07-08T02:57:37;8.52;;;4.57;;
69910;SDS011;63555;49.920;17.868;2023-07-08T03:02:39;8.47;;;4.23;;
69910;SDS011;63555;49.920;17.868;2023-07-08T03:07:40;8.83;;;4.70;;
69910;SDS011;63555;49.920;17.868;2023-07-08T03:12:40;7.30;;;4.17;;
69910;SDS011;63555;49.920;17.868;2023-07-08T03:17:40;10.20;;;4.00;;
69910;SDS011;63555;49.920;17.868;2023-07-08T03:22:41;9.95;;;3.97;;
69910;SDS011;63555;49.920;17.868;2023-07-08T03:27:42;7.27;;;4.50;;
69910;SDS011;63555;49.920;17.868;2023-07-08T03:32:43;6.93;;;4.47;;
69910;SDS011;63555;49.920;17.868;2023-07-08T03:37:44;9.80;;;4.53;;
69910;SDS011;63555;49.920;17.868;2023-07-08T03:42:44;8.03;;;4.57;;
69910;SDS011;63555;49.920;17.868;2023-07-08T03:47:44;7.00;;;4.40;;
69910;SDS011;63555;49.920;17.868;2023-07-08T03:52:46;10.40;;;5.35;;
69910;SDS011;63555;49.920;17.868;2023-07-08T03:57:47;11.80;;;5.75;;
69910;SDS011;63555;49.920;17.868;2023-07-08T04:02:48;9.33;;;4.60;;
69910;SDS011;63555;49.920;17.868;2023-07-08T04:07:48;12.02;;;5.30;;
69910;SDS011;63555;49.920;17.868;2023-07-08T04:12:49;9.90;;;5.70;;
69910;SDS011;63555;49.920;17.868;2023-07-08T04:17:49;10.77;;;5.20;;
69910;SDS011;63555;49.920;17.868;2023-07-08T04:22:50;10.73;;;5.63;;
69910;SDS011;63555;49.920;17.868;2023-07-08T04:27:50;14.23;;;5.43;;
69910;SDS011;63555;49.920;17.868;2023-07-08T04:32:51;10.90;;;5.97;;
69910;SDS011;63555;49.920;17.868;2023-07-08T04:37:51;13.40;;;6.13;;
69910;SDS011;63555;49.920;17.868;2023-07-08T04:42:52;13.13;;;6.23;;
69910;SDS011;63555;49.920;17.868;2023-07-08T04:47:53;10.37;;;5.70;;
69910;SDS011;63555;49.920;17.868;2023-07-08T04:52:53;10.57;;;6.17;;
69910;SDS011;63555;49.920;17.868;2023-07-08T04:57:53;13.57;;;7.10;;
69910;SDS011;63555;49.920;17.868;2023-07-08T05:02:54;12.83;;;6.47;;
69910;SDS011;63555;49.920;17.868;2023-07-08T05:07:54;13.07;;;6.47;;
69910;SDS011;63555;49.920;17.868;2023-07-08T05:12:55;11.63;;;6.63;;
69910;SDS011;63555;49.920;17.868;2023-07-08T05:17:56;11.93;;;6.47;;
69910;SDS011;63555;49.920;17.868;2023-07-08T05:22:56;9.77;;;5.90;;
69910;SDS011;63555;49.920;17.868;2023-07-08T05:27:58;9.55;;;6.20;;
69910;SDS011;63555;49.920;17.868;2023-07-08T05:32:58;9.67;;;6.13;;
69910;SDS011;63555;49.920;17.868;2023-07-08T05:37:58;9.83;;;5.60;;
69910;SDS011;63555;49.920;17.868;2023-07-08T05:42:59;9.20;;;5.73;;
69910;SDS011;63555;49.920;17.868;2023-07-08T05:47:59;8.37;;;5.13;;
69910;SDS011;63555;49.920;17.868;2023-07-08T05:53:00;7.57;;;5.43;;
69910;SDS011;63555;49.920;17.868;2023-07-08T05:58:00;8.00;;;5.13;;
69910;SDS011;63555;49.920;17.868;2023-07-08T06:03:00;8.17;;;4.80;;
69910;SDS011;63555;49.920;17.868;2023-07-08T06:08:01;11.10;;;5.00;;
69910;SDS011;63555;49.920;17.868;2023-07-08T06:13:01;8.87;;;4.87;;
69910;SDS011;63555;49.920;17.868;2023-07-08T06:18:02;7.97;;;4.70;;
69910;SDS011;63555;49.920;17.868;2023-07-08T06:23:03;7.10;;;4.40;;
69910;SDS011;63555;49.920;17.868;2023-07-08T06:28:04;10.18;;;4.53;;
69910;SDS011;63555;49.920;17.868;2023-07-08T06:33:04;9.90;;;4.60;;
69910;SDS011;63555;49.920;17.868;2023-07-08T06:38:05;8.30;;;4.13;;
69910;SDS011;63555;49.920;17.868;2023-07-08T06:43:06;7.55;;;4.10;;
69910;SDS011;63555;49.920;17.868;2023-07-08T06:48:06;4.80;;;3.27;;
69910;SDS011;63555;49.920;17.868;2023-07-08T06:53:07;6.60;;;3.00;;
69910;SDS011;63555;49.920;17.868;2023-07-08T06:58:07;6.33;;;3.43;;
69910;SDS011;63555;49.920;17.868;2023-07-08T07:03:08;5.43;;;3.30;;
69910;SDS011;63555;49.920;17.868;2023-07-08T07:08:08;4.87;;;2.80;;
69910;SDS011;63555;49.920;17.868;2023-07-08T07:13:09;6.90;;;3.00;;
69910;SDS011;63555;49.920;17.868;2023-07-08T07:18:10;4.67;;;2.67;;
69910;SDS011;63555;49.920;17.868;2023-07-08T07:23:12;8.80;;;3.27;;
69910;SDS011;63555;49.920;17.868;2023-07-08T07:28:13;6.57;;;3.20;;
69910;SDS011;63555;49.920;17.868;2023-07-08T07:33:14;4.77;;;3.10;;
69910;SDS011;63555;49.920;17.868;2023-07-08T07:38:15;4.93;;;2.90;;
69910;SDS011;63555;49.920;17.868;2023-07-08T07:43:18;7.05;;;2.92;;
69910;SDS011;63555;49.920;17.868;2023-07-08T07:48:19;4.83;;;2.60;;
69910;SDS011;63555;49.920;17.868;2023-07-08T07:53:20;5.13;;;2.60;;
69910;SDS011;63555;49.920;17.868;2023-07-08T07:58:20;3.80;;;2.73;;
69910;SDS011;63555;49.920;17.868;2023-07-08T08:03:21;5.00;;;2.70;;
69910;SDS011;63555;49.920;17.868;2023-07-08T08:08:21;4.67;;;3.00;;
69910;SDS011;63555;49.920;17.868;2023-07-08T08:13:22;6.70;;;2.53;;
69910;SDS011;63555;49.920;17.868;2023-07-08T08:18:22;4.10;;;2.60;;
69910;SDS011;63555;49.920;17.868;2023-07-08T08:23:23;3.67;;;2.80;;
69910;SDS011;63555;49.920;17.868;2023-07-08T08:28:23;6.27;;;2.73;;
69910;SDS011;63555;49.920;17.868;2023-07-08T08:33:24;4.70;;;2.77;;
69910;SDS011;63555;49.920;17.868;2023-07-08T08:38:24;4.53;;;3.07;;
69910;SDS011;63555;49.920;17.868;2023-07-08T08:43:30;4.10;;;2.60;;
69910;SDS011;63555;49.920;17.868;2023-07-08T08:48:36;4.38;;;3.17;;
69910;SDS011;63555;49.920;17.868;2023-07-08T08:53:43;5.47;;;3.20;;
69910;SDS011;63555;49.920;17.868;2023-07-08T08:59:00;4.28;;;3.00;;
69910;SDS011;63555;49.920;17.868;2023-07-08T09:04:03;8.50;;;3.40;;
69910;SDS011;63555;49.920;17.868;2023-07-08T09:14:35;4.77;;;2.90;;
69910;SDS011;63555;49.920;17.868;2023-07-08T09:19:42;7.43;;;3.10;;
69910;SDS011;63555;49.920;17.868;2023-07-08T09:24:49;6.13;;;3.30;;
69910;SDS011;63555;49.920;17.868;2023-07-08T09:29:51;5.17;;;3.23;;
69910;SDS011;63555;49.920;17.868;2023-07-08T09:34:54;4.93;;;3.13;;
69910;SDS011;63555;49.920;17.868;2023-07-08T09:40:14;5.30;;;3.30;;
69910;SDS011;63555;49.920;17.868;2023-07-08T09:45:17;3.53;;;3.00;;
69910;SDS011;63555;49.920;17.868;2023-07-08T09:50:26;3.77;;;3.23;;
69910;SDS011;63555;49.920;17.868;2023-07-08T09:55:28;4.25;;;3.20;;
69910;SDS011;63555;49.920;17.868;2023-07-08T10:00:32;3.60;;;3.17;;
69910;SDS011;63555;49.920;17.868;2023-07-08T10:05:39;4.20;;;3.50;;
69910;SDS011;63555;49.920;17.868;2023-07-08T10:10:41;3.80;;;3.40;;
69910;SDS011;63555;49.920;17.868;2023-07-08T10:15:44;4.33;;;3.60;;
69910;SDS011;63555;49.920;17.868;2023-07-08T10:36:51;5.53;;;3.37;;
69910;SDS011;63555;49.920;17.868;2023-07-08T10:47:00;5.50;;;3.20;;
69910;SDS011;63555;49.920;17.868;2023-07-08T10:57:35;4.43;;;3.50;;
69910;SDS011;63555;49.920;17.868;2023-07-08T11:02:57;4.57;;;3.13;;
69910;SDS011;63555;49.920;17.868;2023-07-08T11:08:20;5.50;;;4.70;;
69910;SDS011;63555;49.920;17.868;2023-07-08T11:13:21;4.53;;;3.33;;
69910;SDS011;63555;49.920;17.868;2023-07-08T11:23:47;3.73;;;3.20;;
69910;SDS011;63555;49.920;17.868;2023-07-08T11:28:57;4.23;;;3.40;;
69910;SDS011;63555;49.920;17.868;2023-07-08T11:33:59;3.80;;;3.45;;
69910;SDS011;63555;49.920;17.868;2023-07-08T11:39:01;3.50;;;3.10;;
69910;SDS011;63555;49.920;17.868;2023-07-08T11:44:04;5.03;;;3.23;;
69910;SDS011;63555;49.920;17.868;2023-07-08T11:49:12;4.47;;;3.60;;
69910;SDS011;63555;49.920;17.868;2023-07-08T11:54:14;3.60;;;3.13;;
69910;SDS011;63555;49.920;17.868;2023-07-08T11:59:28;3.60;;;3.15;;
69910;SDS011;63555;49.920;17.868;2023-07-08T12:04:32;3.90;;;3.10;;
69910;SDS011;63555;49.920;17.868;2023-07-08T12:09:43;3.77;;;3.20;;
69910;SDS011;63555;49.920;17.868;2023-07-08T12:14:47;3.92;;;3.13;;
69910;SDS011;63555;49.920;17.868;2023-07-08T12:19:47;3.83;;;3.43;;
69910;SDS011;63555;49.920;17.868;2023-07-08T12:24:50;4.07;;;3.67;;
69910;SDS011;63555;49.920;17.868;2023-07-08T12:29:50;3.90;;;3.50;;
69910;SDS011;63555;49.920;17.868;2023-07-08T12:34:51;4.03;;;3.37;;
69910;SDS011;63555;49.920;17.868;2023-07-08T12:39:56;3.90;;;3.00;;
69910;SDS011;63555;49.920;17.868;2023-07-08T12:45:09;6.70;;;3.27;;
69910;SDS011;63555;49.920;17.868;2023-07-08T12:50:16;3.53;;;3.15;;
69910;SDS011;63555;49.920;17.868;2023-07-08T12:55:16;4.93;;;3.30;;
69910;SDS011;63555;49.920;17.868;2023-07-08T13:00:24;4.70;;;3.43;;
69910;SDS011;63555;49.920;17.868;2023-07-08T13:05:27;4.15;;;3.60;;
69910;SDS011;63555;49.920;17.868;2023-07-08T13:10:29;3.97;;;3.57;;
69910;SDS011;63555;49.920;17.868;2023-07-08T13:15:33;6.13;;;3.40;;
69910;SDS011;63555;49.920;17.868;2023-07-08T13:20:37;3.63;;;3.08;;
69910;SDS011;63555;49.920;17.868;2023-07-08T13:25:38;4.60;;;3.30;;
69910;SDS011;63555;49.920;17.868;2023-07-08T13:30:39;4.50;;;3.60;;
69910;SDS011;63555;49.920;17.868;2023-07-08T13:35:39;4.03;;;2.97;;
69910;SDS011;63555;49.920;17.868;2023-07-08T13:40:42;3.80;;;3.37;;
69910;SDS011;63555;49.920;17.868;2023-07-08T13:45:46;3.70;;;3.17;;
69910;SDS011;63555;49.920;17.868;2023-07-08T13:50:49;3.50;;;3.10;;
69910;SDS011;63555;49.920;17.868;2023-07-08T13:55:58;4.37;;;3.50;;
69910;SDS011;63555;49.920;17.868;2023-07-08T14:01:01;4.57;;;3.33;;
69910;SDS011;63555;49.920;17.868;2023-07-08T14:06:01;4.03;;;3.40;;
69910;SDS011;63555;49.920;17.868;2023-07-08T14:11:02;5.23;;;3.33;;
69910;SDS011;63555;49.920;17.868;2023-07-08T14:16:02;5.07;;;3.80;;
69910;SDS011;63555;49.920;17.868;2023-07-08T14:21:06;4.15;;;3.30;;
69910;SDS011;63555;49.920;17.868;2023-07-08T14:26:09;5.85;;;3.00;;
69910;SDS011;63555;49.920;17.868;2023-07-08T14:31:11;5.80;;;3.13;;
69910;SDS011;63555;49.920;17.868;2023-07-08T14:36:13;4.00;;;3.42;;
69910;SDS011;63555;49.920;17.868;2023-07-08T14:41:14;4.80;;;3.50;;
69910;SDS011;63555;49.920;17.868;2023-07-08T14:46:15;5.37;;;3.10;;
69910;SDS011;63555;49.920;17.868;2023-07-08T14:51:16;3.80;;;3.47;;
69910;SDS011;63555;49.920;17.868;2023-07-08T14:56:17;3.80;;;3.10;;
69910;SDS011;63555;49.920;17.868;2023-07-08T15:01:19;3.83;;;2.90;;
69910;SDS011;63555;49.920;17.868;2023-07-08T15:06:21;4.47;;;3.45;;
69910;SDS011;63555;49.920;17.868;2023-07-08T15:11:21;3.90;;;3.20;;
69910;SDS011;63555;49.920;17.868;2023-07-08T15:16:23;3.70;;;2.70;;
69910;SDS011;63555;49.920;17.868;2023-07-08T15:21:24;3.63;;;3.00;;
69910;SDS011;63555;49.920;17.868;2023-07-08T15:26:24;3.40;;;2.70;;
69910;SDS011;63555;49.920;17.868;2023-07-08T15:31:27;4.47;;;2.80;;
69910;SDS011;63555;49.920;17.868;2023-07-08T15:36:32;5.47;;;2.83;;
69910;SDS011;63555;49.920;17.868;2023-07-08T15:41:33;3.47;;;2.97;;
69910;SDS011;63555;49.920;17.868;2023-07-08T15:46:37;4.50;;;2.70;;
69910;SDS011;63555;49.920;17.868;2023-07-08T15:51:44;3.70;;;2.90;;
69910;SDS011;63555;49.920;17.868;2023-07-08T15:56:46;5.37;;;3.07;;
69910;SDS011;63555;49.920;17.868;2023-07-08T16:01:48;5.53;;;3.20;;
69910;SDS011;63555;49.920;17.868;2023-07-08T16:06:49;3.40;;;3.10;;
69910;SDS011;63555;49.920;17.868;2023-07-08T16:11:50;3.60;;;2.90;;
69910;SDS011;63555;49.920;17.868;2023-07-08T16:16:50;3.13;;;2.60;;
69910;SDS011;63555;49.920;17.868;2023-07-08T16:21:52;4.50;;;3.00;;
69910;SDS011;63555;49.920;17.868;2023-07-08T16:26:52;4.47;;;3.10;;
69910;SDS011;63555;49.920;17.868;2023-07-08T16:31:53;4.57;;;2.63;;
69910;SDS011;63555;49.920;17.868;2023-07-08T16:36:54;4.47;;;2.10;;
69910;SDS011;63555;49.920;17.868;2023-07-08T16:41:54;5.47;;;2.20;;
69910;SDS011;63555;49.920;17.868;2023-07-08T16:46:54;3.17;;;1.67;;
69910;SDS011;63555;49.920;17.868;2023-07-08T16:51:56;5.40;;;1.75;;
69910;SDS011;63555;49.920;17.868;2023-07-08T16:56:56;3.37;;;1.90;;
69910;SDS011;63555;49.920;17.868;2023-07-08T17:01:57;4.50;;;1.70;;
69910;SDS011;63555;49.920;17.868;2023-07-08T17:06:57;3.43;;;1.67;;
69910;SDS011;63555;49.920;17.868;2023-07-08T17:11:57;9.10;;;3.30;;
69910;SDS011;63555;49.920;17.868;2023-07-08T17:16:58;3.73;;;2.00;;
69910;SDS011;63555;49.920;17.868;2023-07-08T17:21:58;4.80;;;2.00;;
69910;SDS011;63555;49.920;17.868;2023-07-08T17:26:59;5.40;;;2.20;;
69910;SDS011;63555;49.920;17.868;2023-07-08T17:31:59;4.10;;;2.07;;
69910;SDS011;63555;49.920;17.868;2023-07-08T17:37:02;3.75;;;1.95;;
69910;SDS011;63555;49.920;17.868;2023-07-08T17:42:02;6.40;;;2.80;;
69910;SDS011;63555;49.920;17.868;2023-07-08T17:47:03;5.67;;;2.07;;
69910;SDS011;63555;49.920;17.868;2023-07-08T17:52:03;4.23;;;2.50;;
69910;SDS011;63555;49.920;17.868;2023-07-08T17:57:04;5.25;;;2.10;;
69910;SDS011;63555;49.920;17.868;2023-07-08T18:02:15;3.90;;;2.07;;
69910;SDS011;63555;49.920;17.868;2023-07-08T18:07:16;5.80;;;3.88;;
69910;SDS011;63555;49.920;17.868;2023-07-08T18:12:18;5.50;;;2.10;;
69910;SDS011;63555;49.920;17.868;2023-07-08T18:17:18;10.20;;;4.23;;
69910;SDS011;63555;49.920;17.868;2023-07-08T18:22:18;28.27;;;9.47;;
69910;SDS011;63555;49.920;17.868;2023-07-08T18:27:19;18.63;;;8.10;;
69910;SDS011;63555;49.920;17.868;2023-07-08T18:32:19;5.23;;;2.50;;
69910;SDS011;63555;49.920;17.868;2023-07-08T18:37:24;9.45;;;2.70;;
69910;SDS011;63555;49.920;17.868;2023-07-08T18:42:25;5.20;;;3.00;;
69910;SDS011;63555;49.920;17.868;2023-07-08T18:47:25;8.65;;;4.28;;
69910;SDS011;63555;49.920;17.868;2023-07-08T18:52:26;5.37;;;1.97;;
69910;SDS011;63555;49.920;17.868;2023-07-08T18:57:45;4.78;;;1.95;;
69910;SDS011;63555;49.920;17.868;2023-07-08T19:02:50;5.17;;;2.60;;
69910;SDS011;63555;49.920;17.868;2023-07-08T19:07:54;7.57;;;3.00;;
69910;SDS011;63555;49.920;17.868;2023-07-08T19:12:54;6.47;;;2.50;;
69910;SDS011;63555;49.920;17.868;2023-07-08T19:17:56;4.07;;;2.23;;
69910;SDS011;63555;49.920;17.868;2023-07-08T19:22:56;6.97;;;2.58;;
69910;SDS011;63555;49.920;17.868;2023-07-08T19:27:57;4.67;;;2.23;;
69910;SDS011;63555;49.920;17.868;2023-07-08T19:32:58;6.03;;;2.20;;
69910;SDS011;63555;49.920;17.868;2023-07-08T19:38:01;4.13;;;2.40;;
69910;SDS011;63555;49.920;17.868;2023-07-08T19:43:01;4.07;;;2.30;;
69910;SDS011;63555;49.920;17.868;2023-07-08T19:48:02;5.37;;;2.70;;
69910;SDS011;63555;49.920;17.868;2023-07-08T19:53:03;4.83;;;2.50;;
69910;SDS011;63555;49.920;17.868;2023-07-08T19:58:04;8.40;;;3.22;;
69910;SDS011;63555;49.920;17.868;2023-07-08T20:03:10;5.77;;;3.03;;
69910;SDS011;63555;49.920;17.868;2023-07-08T20:08:18;4.95;;;2.60;;
69910;SDS011;63555;49.920;17.868;2023-07-08T20:13:32;6.35;;;2.90;;
69910;SDS011;63555;49.920;17.868;2023-07-08T20:18:33;6.93;;;3.70;;
69910;SDS011;63555;49.920;17.868;2023-07-08T20:23:34;8.27;;;3.77;;
69910;SDS011;63555;49.920;17.868;2023-07-08T20:28:34;6.67;;;3.93;;
69910;SDS011;63555;49.920;17.868;2023-07-08T20:33:34;7.30;;;4.00;;
69910;SDS011;63555;49.920;17.868;2023-07-08T20:38:35;8.50;;;4.07;;
69910;SDS011;63555;49.920;17.868;2023-07-08T20:43:35;7.10;;;3.40;;
69910;SDS011;63555;49.920;17.868;2023-07-08T20:48:36;8.70;;;3.57;;
69910;SDS011;63555;49.920;17.868;2023-07-08T20:53:36;7.90;;;3.57;;
69910;SDS011;63555;49.920;17.868;2023-07-08T20:58:36;6.57;;;3.80;;
69910;SDS011;63555;49.920;17.868;2023-07-08T21:03:37;8.10;;;4.03;;
69910;SDS011;63555;49.920;17.868;2023-07-08T21:08:38;6.93;;;3.53;;
69910;SDS011;63555;49.920;17.868;2023-07-08T21:13:39;6.70;;;3.40;;
69910;SDS011;63555;49.920;17.868;2023-07-08T21:18:39;6.13;;;3.50;;
69910;SDS011;63555;49.920;17.868;2023-07-08T21:23:40;6.67;;;3.47;;
69910;SDS011;63555;49.920;17.868;2023-07-08T21:28:41;5.93;;;3.42;;
69910;SDS011;63555;49.920;17.868;2023-07-08T21:33:44;7.10;;;3.07;;
69910;SDS011;63555;49.920;17.868;2023-07-08T21:38:45;6.00;;;3.28;;
69910;SDS011;63555;49.920;17.868;2023-07-08T21:43:45;6.53;;;3.80;;
69910;SDS011;63555;49.920;17.868;2023-07-08T21:48:46;6.77;;;3.67;;
69910;SDS011;63555;49.920;17.868;2023-07-08T21:53:48;5.57;;;3.33;;
69910;SDS011;63555;49.920;17.868;2023-07-08T21:58:48;6.63;;;3.77;;
69910;SDS011;63555;49.920;17.868;2023-07-08T22:03:49;5.93;;;3.73;;
69910;SDS011;63555;49.920;17.868;2023-07-08T22:08:50;7.15;;;3.15;;
69910;SDS011;63555;49.920;17.868;2023-07-08T22:13:50;8.23;;;3.45;;
69910;SDS011;63555;49.920;17.868;2023-07-08T22:18:53;5.93;;;3.72;;
69910;SDS011;63555;49.920;17.868;2023-07-08T22:23:54;6.43;;;3.58;;
69910;SDS011;63555;49.920;17.868;2023-07-08T22:28:56;6.60;;;3.40;;
69910;SDS011;63555;49.920;17.868;2023-07-08T22:33:57;5.93;;;3.47;;
69910;SDS011;63555;49.920;17.868;2023-07-08T22:39:02;6.10;;;3.70;;
69910;SDS011;63555;49.920;17.868;2023-07-08T22:44:04;7.32;;;3.88;;
69910;SDS011;63555;49.920;17.868;2023-07-08T22:49:05;6.13;;;3.80;;
69910;SDS011;63555;49.920;17.868;2023-07-08T22:54:06;7.20;;;4.00;;
69910;SDS011;63555;49.920;17.868;2023-07-08T22:59:08;5.80;;;3.80;;
69910;SDS011;63555;49.920;17.868;2023-07-08T23:04:08;6.65;;;3.53;;
69910;SDS011;63555;49.920;17.868;2023-07-08T23:09:10;7.30;;;3.50;;
69910;SDS011;63555;49.920;17.868;2023-07-08T23:14:13;5.78;;;3.83;;
69910;SDS011;63555;49.920;17.868;2023-07-08T23:19:15;6.60;;;3.95;;
69910;SDS011;63555;49.920;17.868;2023-07-08T23:24:15;7.20;;;3.63;;
69910;SDS011;63555;49.920;17.868;2023-07-08T23:29:18;5.63;;;3.80;;
69910;SDS011;63555;49.920;17.868;2023-07-08T23:34:20;6.82;;;4.07;;
69910;SDS011;63555;49.920;17.868;2023-07-08T23:39:21;5.67;;;3.47;;
69910;SDS011;63555;49.920;17.868;2023-07-08T23:44:25;9.00;;;3.50;;
69910;SDS011;63555;49.920;17.868;2023-07-08T23:49:28;7.63;;;4.13;;
69910;SDS011;63555;49.920;17.868;2023-07-08T23:54:33;6.23;;;3.60;;
69910;SDS011;63555;49.920;17.868;2023-07-08T23:59:35;5.75;;;3.72;;
